Have a Safe July 4th! 

Flight Track Log - Related Links

Times and Time Zones

All times are in EST time to prevent confusion due to time zone crossing. See the N830QS flight status page for this flight to view local times or setup timezone preferences in your user account.

Time Position Orientation Groundspeed Altitude Reporting Facility
EST Latitude Longitude Course Direction KTS MPH feet Rate Location/Type
Sun 12:22:26 PM 35.2242 -80.9394 North 188 216 1,600  Level Atlanta Center
Sun 12:23:45 PM 35.3117 -80.9336 North 263 303 5,600 2,712 Climbing Atlanta Center
Sun 12:24:52 PM 35.3058 -81.0256 266° West 269 310 8,200 2,120 Climbing Atlanta Center
Sun 12:26:15 PM 35.2772 -81.1386 253° West 271 312 10,900 2,643 Climbing Atlanta Center
Sun 12:27:15 PM 35.2539 -81.2156 250° West 271 312 14,500 3,500 Climbing Atlanta Center
Sun 12:28:15 PM 35.2392 -81.3050 259° West 266 306 17,900 3,200 Climbing Atlanta Center
Sun 12:29:15 PM 35.2350 -81.4019 267° West 266 306 20,900 2,550 Climbing Atlanta Center
Sun 12:30:15 PM 35.2267 -81.4961 264° West 280 322 23,000 2,400 Climbing Atlanta Center
Sun 12:31:15 PM 35.2206 -81.6058 266° West 304 350 25,700 1,500 Climbing Atlanta Center
Sun 12:32:15 PM 35.2142 -81.7128 266° West 317 365 26,000 150 Climbing Atlanta Center
Sun 12:33:15 PM 35.2081 -81.8297 266° West 334 384 26,000  Level Atlanta Center
Sun 12:34:15 PM 35.2017 -81.9444 266° West 334 384 26,000  Level Atlanta Center
Sun 12:35:15 PM 35.1953 -82.0564 266° West 335 386 26,000  Level Atlanta Center
Sun 12:36:15 PM 35.1886 -82.1606 266° West 329 379 26,000  Level Atlanta Center
Sun 12:37:15 PM 35.1817 -82.2675 265° West 324 373 26,000  Level Atlanta Center
Sun 12:38:15 PM 35.1728 -82.3744 264° West 324 373 26,000  Level Atlanta Center
Sun 12:39:15 PM 35.1681 -82.4814 267° West 324 373 26,000  Level Atlanta Center
Sun 12:40:15 PM 35.1611 -82.5983 266° West 324 373 26,000  Level Atlanta Center
Sun 12:41:15 PM 35.1519 -82.7050 264° West 324 373 26,000  Level Atlanta Center
Sun 12:42:15 PM 35.1444 -82.8069 265° West 319 367 26,000  Level Atlanta Center
Sun 12:43:15 PM 35.1394 -82.9136 267° West 314 361 26,000  Level Atlanta Center
Sun 12:44:15 PM 35.1297 -83.0231 264° West 314 361 26,000  Level Atlanta Center
Sun 12:45:15 PM 35.1222 -83.1272 265° West 314 361 26,000  Level Atlanta Center
Sun 12:46:15 PM 35.1147 -83.2364 265° West 314 361 26,000  Level Atlanta Center
Sun 12:47:15 PM 35.1069 -83.3431 265° West 319 367 26,000  Level Atlanta Center
Sun 12:48:15 PM 35.0972 -83.4550 264° West 319 367 26,000  Level Atlanta Center
Sun 12:49:15 PM 35.0914 -83.5564 266° West 324 373 26,000  Level Atlanta Center
Sun 12:50:15 PM 35.0833 -83.6556 264° West 324 373 26,000 -550 Level Atlanta Center
Sun 12:51:15 PM 35.0900 -83.7622 274° West 324 373 24,900 -1,000 Descending Atlanta Center
Sun 12:52:15 PM 35.0922 -83.8686 271° West 324 373 24,000 -450 Descending Atlanta Center
Sun 12:53:15 PM 35.0964 -83.9753 273° West 324 373 24,000  Level Atlanta Center
Sun 12:54:15 PM 35.1028 -84.0819 274° West 329 379 24,000 -300 Level Atlanta Center
Sun 12:55:15 PM 35.1069 -84.1936 273° West 329 379 23,400 -1,050 Descending Atlanta Center
Sun 12:56:15 PM 35.1108 -84.3003 273° West 329 379 21,900 -1,500 Descending Atlanta Center
Sun 12:57:15 PM 35.1169 -84.4044 274° West 329 379 20,400 -1,500 Descending Atlanta Center
Sun 12:58:15 PM 35.1228 -84.5186 274° West 324 373 18,900 -1,400 Descending Atlanta Center
Sun 12:59:15 PM 35.1264 -84.6203 273° West 314 361 17,600 -1,450 Descending Atlanta Center
Sun 01:00:15 PM 35.1281 -84.7219 271° West 309 356 16,000 -1,500 Descending Atlanta Center
Sun 01:01:15 PM 35.1336 -84.8236 274° West 309 356 14,600 -1,143 Descending Atlanta Center
Sun 01:03:45 PM 35.1433 -85.0622 273° West 294 338 12,000 -736 Descending Memphis Center
Sun 01:04:47 PM 35.1461 -85.1522 272° West 271 312 12,000 -290 Level Memphis Center
Sun 01:05:49 PM 35.1506 -85.2628 273° West 270 311 11,400 -871 Descending Memphis Center
Sun 01:06:51 PM 35.1544 -85.3614 273° West 283 326 10,200 -1,306 Descending Memphis Center
Sun 01:07:53 PM 35.1578 -85.4519 273° West 275 316 8,700 -1,500 Descending Memphis Center
Sun 01:08:55 PM 35.1603 -85.5378 272° West 259 298 7,100 -1,452 Descending Memphis Center
Sun 01:09:57 PM 35.1625 -85.6275 272° West 260 299 5,700 -1,448 Descending Memphis Center
Sun 01:10:22 PM 35.1642 -85.6625 273° West 261 300 5,000 -1,172 Descending Memphis Center
Sun 01:11:24 PM 35.1664 -85.7442 272° West 253 291 4,000 -484 Descending Memphis Center
Sun 01:12:26 PM 35.1708 -85.8156 274° West 235 270 4,000  Level Memphis Center
Sun 01:13:28 PM 35.1719 -85.8972 271° West 210 242 4,000  Level Memphis Center
Sun 01:14:30 PM 35.1736 -85.9642 272° West 201 231 4,000 -290 Level Memphis Center
Sun 01:15:32 PM 35.1753 -86.0125 272° West 184 212 3,400 -581 Descending Memphis Center

Login

Don't have an account? Register now (free) for customized features, flight alerts, and more!